sensor_id;sensor_type;location;lat;lon;timestamp;pressure;altitude;pressure_sealevel;temperature;humidity
83191;BME280;73087;49.924;22.080;2024-01-30T00:00:51;100865.19;;;3.68;62.29
83191;BME280;73087;49.924;22.080;2024-01-30T00:01:52;100893.28;;;3.86;60.84
83191;BME280;73087;49.924;22.080;2024-01-30T00:02:53;100894.97;;;3.89;61.60
83191;BME280;73087;49.924;22.080;2024-01-30T00:03:53;100887.19;;;3.87;62.10
83191;BME280;73087;49.924;22.080;2024-01-30T00:04:54;100892.41;;;3.87;61.53
83191;BME280;73087;49.924;22.080;2024-01-30T00:05:54;100892.41;;;3.87;60.87
83191;BME280;73087;49.924;22.080;2024-01-30T00:06:55;100889.84;;;3.86;60.85
83191;BME280;73087;49.924;22.080;2024-01-30T00:07:55;100887.28;;;3.84;61.42
83191;BME280;73087;49.924;22.080;2024-01-30T00:08:56;100873.47;;;3.82;61.41
83191;BME280;73087;49.924;22.080;2024-01-30T00:09:56;100889.97;;;3.81;60.89
83191;BME280;73087;49.924;22.080;2024-01-30T00:10:57;100846.31;;;3.60;60.91
83191;BME280;73087;49.924;22.080;2024-01-30T00:11:58;100885.81;;;3.74;61.35
83191;BME280;73087;49.924;22.080;2024-01-30T00:12:59;100889.22;;;3.76;60.70
83191;BME280;73087;49.924;22.080;2024-01-30T00:14:00;100877.22;;;3.72;62.02
83191;BME280;73087;49.924;22.080;2024-01-30T00:15:02;100889.31;;;3.73;61.03
83191;BME280;73087;49.924;22.080;2024-01-30T00:16:03;100882.41;;;3.72;61.91
83191;BME280;73087;49.924;22.080;2024-01-30T00:17:03;100877.22;;;3.72;61.94
83191;BME280;73087;49.924;22.080;2024-01-30T00:18:04;100881.53;;;3.72;60.98
83191;BME280;73087;49.924;22.080;2024-01-30T00:19:06;100880.69;;;3.71;60.91
83191;BME280;73087;49.924;22.080;2024-01-30T00:20:07;100877.22;;;3.72;61.95
83191;BME280;73087;49.924;22.080;2024-01-30T00:21:07;100870.31;;;3.71;61.58
83191;BME280;73087;49.924;22.080;2024-01-30T00:22:08;100878.91;;;3.73;62.21
83191;BME280;73087;49.924;22.080;2024-01-30T00:23:08;100876.34;;;3.72;61.13
83191;BME280;73087;49.924;22.080;2024-01-30T00:24:09;100873.78;;;3.70;61.73
83191;BME280;73087;49.924;22.080;2024-01-30T00:25:10;100882.47;;;3.69;61.95
83191;BME280;73087;49.924;22.080;2024-01-30T00:26:10;100872.09;;;3.69;61.19
83191;BME280;73087;49.924;22.080;2024-01-30T00:27:11;100868.69;;;3.67;62.60
83191;BME280;73087;49.924;22.080;2024-01-30T00:28:11;100879.06;;;3.67;62.81
83191;BME280;73087;49.924;22.080;2024-01-30T00:29:12;100873.88;;;3.67;62.93
83191;BME280;73087;49.924;22.080;2024-01-30T00:30:14;100877.34;;;3.66;62.43
83191;BME280;73087;49.924;22.080;2024-01-30T00:31:15;100879.13;;;3.64;62.70
83191;BME280;73087;49.924;22.080;2024-01-30T00:32:15;100880.91;;;3.62;61.07
83191;BME280;73087;49.924;22.080;2024-01-30T00:33:16;100880.97;;;3.59;62.47
83191;BME280;73087;49.924;22.080;2024-01-30T00:34:17;100875.78;;;3.59;62.40
83191;BME280;73087;49.924;22.080;2024-01-30T00:35:17;100879.28;;;3.58;62.58
83191;BME280;73087;49.924;22.080;2024-01-30T00:36:18;100886.16;;;3.59;61.31
83191;BME280;73087;49.924;22.080;2024-01-30T00:37:18;100881.88;;;3.58;63.03
83191;BME280;73087;49.924;22.080;2024-01-30T00:38:19;100877.56;;;3.57;63.00
83191;BME280;73087;49.924;22.080;2024-01-30T00:39:19;100880.13;;;3.59;61.29
83191;BME280;73087;49.924;22.080;2024-01-30T00:40:20;100872.38;;;3.57;61.97
83191;BME280;73087;49.924;22.080;2024-01-30T00:41:20;100875.84;;;3.56;61.45
83191;BME280;73087;49.924;22.080;2024-01-30T00:42:21;100874.06;;;3.58;62.32
83191;BME280;73087;49.924;22.080;2024-01-30T00:43:21;100879.28;;;3.58;62.53
83191;BME280;73087;49.924;22.080;2024-01-30T00:44:22;100871.41;;;3.61;61.20
83191;BME280;73087;49.924;22.080;2024-01-30T00:45:24;100874.00;;;3.61;62.08
83191;BME280;73087;49.924;22.080;2024-01-30T00:46:24;100874.00;;;3.61;62.96
83191;BME280;73087;49.924;22.080;2024-01-30T00:47:25;100868.88;;;3.58;62.73
83191;BME280;73087;49.924;22.080;2024-01-30T00:48:25;100872.28;;;3.60;61.53
83191;BME280;73087;49.924;22.080;2024-01-30T00:49:26;100864.56;;;3.59;61.20
83191;BME280;73087;49.924;22.080;2024-01-30T00:50:26;100861.97;;;3.57;62.67
83191;BME280;73087;49.924;22.080;2024-01-30T00:51:27;100863.69;;;3.58;62.98
83191;BME280;73087;49.924;22.080;2024-01-30T00:52:27;100861.09;;;3.58;61.14
83191;BME280;73087;49.924;22.080;2024-01-30T00:53:28;100851.59;;;3.57;62.51
83191;BME280;73087;49.924;22.080;2024-01-30T00:54:29;100860.19;;;3.59;62.55
83191;BME280;73087;49.924;22.080;2024-01-30T00:55:29;100860.19;;;3.59;62.48
83191;BME280;73087;49.924;22.080;2024-01-30T00:56:30;100853.28;;;3.58;62.37
83191;BME280;73087;49.924;22.080;2024-01-30T00:57:30;100853.28;;;3.58;61.37
83191;BME280;73087;49.924;22.080;2024-01-30T00:58:31;100850.75;;;3.57;63.00
83191;BME280;73087;49.924;22.080;2024-01-30T00:59:31;100852.47;;;3.56;62.15
83191;BME280;73087;49.924;22.080;2024-01-30T01:00:33;100853.38;;;3.55;61.54
83191;BME280;73087;49.924;22.080;2024-01-30T01:01:34;100860.28;;;3.56;61.19
83191;BME280;73087;49.924;22.080;2024-01-30T01:02:34;100856.88;;;3.54;61.37
83191;BME280;73087;49.924;22.080;2024-01-30T01:03:35;100828.63;;;3.41;62.75
83191;BME280;73087;49.924;22.080;2024-01-30T01:04:36;100851.75;;;3.51;62.93
83191;BME280;73087;49.924;22.080;2024-01-30T01:05:36;100851.75;;;3.51;61.34
83191;BME280;73087;49.924;22.080;2024-01-30T01:06:37;100854.38;;;3.50;61.47
83191;BME280;73087;49.924;22.080;2024-01-30T01:07:37;100846.63;;;3.48;62.29
83191;BME280;73087;49.924;22.080;2024-01-30T01:08:38;100847.44;;;3.50;62.79
83191;BME280;73087;49.924;22.080;2024-01-30T01:09:38;100851.75;;;3.51;62.56
83191;BME280;73087;49.924;22.080;2024-01-30T01:10:39;100844.84;;;3.50;63.04
83191;BME280;73087;49.924;22.080;2024-01-30T01:11:40;100844.84;;;3.50;62.02
83191;BME280;73087;49.924;22.080;2024-01-30T01:12:40;100844.84;;;3.50;63.15
83191;BME280;73087;49.924;22.080;2024-01-30T01:13:41;100839.66;;;3.50;61.55
83191;BME280;73087;49.924;22.080;2024-01-30T01:14:41;100839.66;;;3.50;62.92
83191;BME280;73087;49.924;22.080;2024-01-30T01:15:43;100837.88;;;3.52;61.42
83191;BME280;73087;49.924;22.080;2024-01-30T01:16:44;100832.66;;;3.52;62.95
83191;BME280;73087;49.924;22.080;2024-01-30T01:17:44;100836.09;;;3.54;62.15
83191;BME280;73087;49.924;22.080;2024-01-30T01:18:45;100832.59;;;3.55;62.07
83191;BME280;73087;49.924;22.080;2024-01-30T01:19:45;100834.31;;;3.56;61.23
83191;BME280;73087;49.924;22.080;2024-01-30T01:20:46;100825.69;;;3.54;62.83
83191;BME280;73087;49.924;22.080;2024-01-30T01:21:46;100829.91;;;3.58;61.38
83191;BME280;73087;49.924;22.080;2024-01-30T01:22:47;100830.66;;;3.63;61.22
83191;BME280;73087;49.924;22.080;2024-01-30T01:23:47;100821.91;;;3.67;61.73
83191;BME280;73087;49.924;22.080;2024-01-30T01:24:48;100818.34;;;3.71;61.96
83191;BME280;73087;49.924;22.080;2024-01-30T01:25:48;100821.84;;;3.70;60.88
83191;BME280;73087;49.924;22.080;2024-01-30T01:26:49;100823.53;;;3.71;62.50
83191;BME280;73087;49.924;22.080;2024-01-30T01:27:50;100823.47;;;3.74;62.55
83191;BME280;73087;49.924;22.080;2024-01-30T01:28:50;100814.78;;;3.75;62.53
83191;BME280;73087;49.924;22.080;2024-01-30T01:29:51;100823.38;;;3.77;61.07
83191;BME280;73087;49.924;22.080;2024-01-30T01:30:53;100809.50;;;3.78;62.48
83191;BME280;73087;49.924;22.080;2024-01-30T01:31:53;100814.59;;;3.81;62.32
83191;BME280;73087;49.924;22.080;2024-01-30T01:32:54;100814.59;;;3.81;60.88
83191;BME280;73087;49.924;22.080;2024-01-30T01:33:54;100816.22;;;3.85;61.21
83191;BME280;73087;49.924;22.080;2024-01-30T01:34:55;100817.84;;;3.89;62.16
83191;BME280;73087;49.924;22.080;2024-01-30T01:35:55;100821.16;;;3.94;61.82
83191;BME280;73087;49.924;22.080;2024-01-30T01:36:56;100812.47;;;3.95;61.69
83191;BME280;73087;49.924;22.080;2024-01-30T01:37:57;100805.50;;;3.97;60.81
83191;BME280;73087;49.924;22.080;2024-01-30T01:38:57;100820.94;;;4.03;61.09
83191;BME280;73087;49.924;22.080;2024-01-30T01:39:58;100813.97;;;4.05;60.20
83191;BME280;73087;49.924;22.080;2024-01-30T01:40:58;100813.88;;;4.08;61.04
83191;BME280;73087;49.924;22.080;2024-01-30T01:41:59;100769.44;;;3.85;61.16
83191;BME280;73087;49.924;22.080;2024-01-30T01:43:03;100815.56;;;4.09;60.92
83191;BME280;73087;49.924;22.080;2024-01-30T01:44:04;100803.66;;;4.02;60.94
83191;BME280;73087;49.924;22.080;2024-01-30T01:45:05;100815.66;;;4.06;61.37
83191;BME280;73087;49.924;22.080;2024-01-30T01:46:07;100809.59;;;4.06;61.01
83191;BME280;73087;49.924;22.080;2024-01-30T01:47:08;100812.25;;;4.04;59.81
83191;BME280;73087;49.924;22.080;2024-01-30T01:48:14;100811.34;;;4.05;59.71
83191;BME280;73087;49.924;22.080;2024-01-30T01:49:15;100813.97;;;4.05;60.87
83191;BME280;73087;49.924;22.080;2024-01-30T01:50:16;100812.25;;;4.04;61.45
83191;BME280;73087;49.924;22.080;2024-01-30T01:51:21;100811.44;;;4.02;61.46
83191;BME280;73087;49.924;22.080;2024-01-30T01:52:22;100813.06;;;4.06;59.80
83191;BME280;73087;49.924;22.080;2024-01-30T01:53:23;100813.88;;;4.08;60.26
83191;BME280;73087;49.924;22.080;2024-01-30T01:54:25;100812.06;;;4.10;59.80
83191;BME280;73087;49.924;22.080;2024-01-30T01:55:27;100803.38;;;4.11;60.27
83191;BME280;73087;49.924;22.080;2024-01-30T01:56:30;100808.59;;;4.11;60.86
83191;BME280;73087;49.924;22.080;2024-01-30T01:57:33;100808.50;;;4.14;61.10
83191;BME280;73087;49.924;22.080;2024-01-30T01:58:33;100811.91;;;4.16;60.44
83191;BME280;73087;49.924;22.080;2024-01-30T01:59:34;100813.59;;;4.17;59.23
83191;BME280;73087;49.924;22.080;2024-01-30T02:00:36;100807.56;;;4.17;60.99
83191;BME280;73087;49.924;22.080;2024-01-30T02:01:38;100805.78;;;4.19;59.28
83191;BME280;73087;49.924;22.080;2024-01-30T02:02:39;100811.81;;;4.19;60.60
83191;BME280;73087;49.924;22.080;2024-01-30T02:03:41;100815.31;;;4.18;59.62
83191;BME280;73087;49.924;22.080;2024-01-30T02:04:42;100803.22;;;4.17;60.33
83191;BME280;73087;49.924;22.080;2024-01-30T02:05:42;100811.09;;;4.14;59.61
83191;BME280;73087;49.924;22.080;2024-01-30T02:06:43;100798.09;;;4.14;60.86
83191;BME280;73087;49.924;22.080;2024-01-30T02:07:44;100807.59;;;4.15;59.78
83191;BME280;73087;49.924;22.080;2024-01-30T02:08:45;100801.50;;;4.16;60.78
83191;BME280;73087;49.924;22.080;2024-01-30T02:09:45;100765.56;;;4.01;60.57
83191;BME280;73087;49.924;22.080;2024-01-30T02:10:46;100802.38;;;4.17;60.25
83191;BME280;73087;49.924;22.080;2024-01-30T02:11:46;100794.69;;;4.12;59.52
83191;BME280;73087;49.924;22.080;2024-01-30T02:12:48;100812.81;;;4.14;59.24
83191;BME280;73087;49.924;22.080;2024-01-30T02:13:49;100769.09;;;3.97;60.41
83191;BME280;73087;49.924;22.080;2024-01-30T02:14:50;100794.41;;;4.21;59.03
83191;BME280;73087;49.924;22.080;2024-01-30T02:15:51;100794.41;;;4.21;59.85
83191;BME280;73087;49.924;22.080;2024-01-30T02:16:53;100796.03;;;4.25;59.57
83191;BME280;73087;49.924;22.080;2024-01-30T02:17:53;100801.22;;;4.25;58.88
83191;BME280;73087;49.924;22.080;2024-01-30T02:18:54;100799.53;;;4.24;60.16
83191;BME280;73087;49.924;22.080;2024-01-30T02:19:54;100795.13;;;4.28;58.82
83191;BME280;73087;49.924;22.080;2024-01-30T02:20:58;100799.34;;;4.30;59.37
83191;BME280;73087;49.924;22.080;2024-01-30T02:22:00;100799.44;;;4.27;59.31
83191;BME280;73087;49.924;22.080;2024-01-30T02:23:01;100807.09;;;4.33;59.70
83191;BME280;73087;49.924;22.080;2024-01-30T02:24:03;100783.94;;;4.24;59.58
83191;BME280;73087;49.924;22.080;2024-01-30T02:25:04;100795.88;;;4.31;60.43
83191;BME280;73087;49.924;22.080;2024-01-30T02:26:04;100805.31;;;4.35;59.63
83191;BME280;73087;49.924;22.080;2024-01-30T02:27:05;100797.41;;;4.38;59.08
83191;BME280;73087;49.924;22.080;2024-01-30T02:28:06;100790.31;;;4.43;59.83
83191;BME280;73087;49.924;22.080;2024-01-30T02:29:07;100795.44;;;4.46;58.13
83191;BME280;73087;49.924;22.080;2024-01-30T02:30:09;100786.81;;;4.44;58.36
83191;BME280;73087;49.924;22.080;2024-01-30T02:31:10;100797.22;;;4.44;60.21
83191;BME280;73087;49.924;22.080;2024-01-30T02:32:10;100797.03;;;4.50;59.61
83191;BME280;73087;49.924;22.080;2024-01-30T02:33:11;100797.03;;;4.50;58.71
83191;BME280;73087;49.924;22.080;2024-01-30T02:34:12;100786.72;;;4.47;58.99
83191;BME280;73087;49.924;22.080;2024-01-30T02:35:12;100797.13;;;4.47;58.76
83191;BME280;73087;49.924;22.080;2024-01-30T02:36:13;100797.03;;;4.50;58.11
83191;BME280;73087;49.924;22.080;2024-01-30T02:37:16;100779.81;;;4.46;58.56
83191;BME280;73087;49.924;22.080;2024-01-30T02:38:17;100793.53;;;4.51;59.09
83191;BME280;73087;49.924;22.080;2024-01-30T02:39:17;100783.13;;;4.51;58.86
83191;BME280;73087;49.924;22.080;2024-01-30T02:40:18;100781.34;;;4.53;58.83
83191;BME280;73087;49.924;22.080;2024-01-30T02:41:18;100787.31;;;4.56;58.10
83191;BME280;73087;49.924;22.080;2024-01-30T02:42:20;100786.53;;;4.53;58.54
83191;BME280;73087;49.924;22.080;2024-01-30T02:43:21;100779.78;;;4.48;58.18
83191;BME280;73087;49.924;22.080;2024-01-30T02:44:21;100788.44;;;4.48;59.84
83191;BME280;73087;49.924;22.080;2024-01-30T02:45:22;100776.41;;;4.44;58.65
83191;BME280;73087;49.924;22.080;2024-01-30T02:46:24;100781.63;;;4.44;60.00
83191;BME280;73087;49.924;22.080;2024-01-30T02:47:24;100786.81;;;4.44;59.92
83191;BME280;73087;49.924;22.080;2024-01-30T02:48:25;100780.00;;;4.40;58.95
83191;BME280;73087;49.924;22.080;2024-01-30T02:49:26;100788.63;;;4.42;59.48
83191;BME280;73087;49.924;22.080;2024-01-30T02:50:26;100783.41;;;4.42;60.17
83191;BME280;73087;49.924;22.080;2024-01-30T02:51:27;100793.81;;;4.42;59.93
83191;BME280;73087;49.924;22.080;2024-01-30T02:52:29;100792.22;;;4.38;58.79
83191;BME280;73087;49.924;22.080;2024-01-30T02:53:29;100782.56;;;4.42;58.68
83191;BME280;73087;49.924;22.080;2024-01-30T02:54:30;100790.41;;;4.40;58.82
83191;BME280;73087;49.924;22.080;2024-01-30T02:55:30;100792.13;;;4.41;59.71
83191;BME280;73087;49.924;22.080;2024-01-30T02:56:31;100793.03;;;4.39;59.76
83191;BME280;73087;49.924;22.080;2024-01-30T02:57:31;100788.72;;;4.39;60.17
83191;BME280;73087;49.924;22.080;2024-01-30T02:58:32;100786.91;;;4.41;60.73
83191;BME280;73087;49.924;22.080;2024-01-30T02:59:32;100798.94;;;4.45;60.60
83191;BME280;73087;49.924;22.080;2024-01-30T03:00:33;100792.03;;;4.44;59.13
83191;BME280;73087;49.924;22.080;2024-01-30T03:01:42;100793.72;;;4.45;60.59
83191;BME280;73087;49.924;22.080;2024-01-30T03:02:43;100789.34;;;4.46;59.72
83191;BME280;73087;49.924;22.080;2024-01-30T03:03:43;100788.53;;;4.45;59.43
83191;BME280;73087;49.924;22.080;2024-01-30T03:04:44;100791.94;;;4.47;59.35
83191;BME280;73087;49.924;22.080;2024-01-30T03:05:44;100797.13;;;4.47;60.08
83191;BME280;73087;49.924;22.080;2024-01-30T03:06:45;100790.31;;;4.43;60.32
83191;BME280;73087;49.924;22.080;2024-01-30T03:07:47;100805.94;;;4.43;60.72
83191;BME280;73087;49.924;22.080;2024-01-30T03:08:48;100805.94;;;4.43;59.80
83191;BME280;73087;49.924;22.080;2024-01-30T03:09:49;100800.63;;;4.46;59.74
83191;BME280;73087;49.924;22.080;2024-01-30T03:10:49;100804.03;;;4.48;59.17
83191;BME280;73087;49.924;22.080;2024-01-30T03:11:50;100797.03;;;4.50;59.22
83191;BME280;73087;49.924;22.080;2024-01-30T03:12:50;100801.41;;;4.50;59.59
83191;BME280;73087;49.924;22.080;2024-01-30T03:13:51;100802.25;;;4.50;59.91
83191;BME280;73087;49.924;22.080;2024-01-30T03:14:51;100802.25;;;4.50;60.62
83191;BME280;73087;49.924;22.080;2024-01-30T03:15:52;100802.16;;;4.53;59.07
83191;BME280;73087;49.924;22.080;2024-01-30T03:16:52;100795.06;;;4.58;60.47
83191;BME280;73087;49.924;22.080;2024-01-30T03:17:53;100803.66;;;4.60;59.96
83191;BME280;73087;49.924;22.080;2024-01-30T03:18:54;100802.84;;;4.59;58.90
83191;BME280;73087;49.924;22.080;2024-01-30T03:19:54;100788.16;;;4.57;59.00
83191;BME280;73087;49.924;22.080;2024-01-30T03:20:55;100794.91;;;4.64;58.89
83191;BME280;73087;49.924;22.080;2024-01-30T03:21:55;100797.53;;;4.62;60.15
83191;BME280;73087;49.924;22.080;2024-01-30T03:22:59;100793.25;;;4.60;59.90
83191;BME280;73087;49.924;22.080;2024-01-30T03:24:00;100801.88;;;4.62;60.36
83191;BME280;73087;49.924;22.080;2024-01-30T03:25:01;100798.41;;;4.63;60.26
83191;BME280;73087;49.924;22.080;2024-01-30T03:26:01;100788.00;;;4.63;59.18
83191;BME280;73087;49.924;22.080;2024-01-30T03:27:02;100794.97;;;4.61;60.37
83191;BME280;73087;49.924;22.080;2024-01-30T03:28:03;100788.06;;;4.60;59.68
83191;BME280;73087;49.924;22.080;2024-01-30T03:29:04;100779.44;;;4.58;60.11
83191;BME280;73087;49.924;22.080;2024-01-30T03:30:06;100781.06;;;4.62;59.09
83191;BME280;73087;49.924;22.080;2024-01-30T03:31:07;100784.56;;;4.61;60.44
83191;BME280;73087;49.924;22.080;2024-01-30T03:32:07;100777.75;;;4.57;59.06
83191;BME280;73087;49.924;22.080;2024-01-30T03:33:08;100782.13;;;4.56;58.83
83191;BME280;73087;49.924;22.080;2024-01-30T03:34:08;100780.50;;;4.53;60.39
83191;BME280;73087;49.924;22.080;2024-01-30T03:35:09;100779.53;;;4.55;60.15
83191;BME280;73087;49.924;22.080;2024-01-30T03:36:10;100745.50;;;4.35;59.14
83191;BME280;73087;49.924;22.080;2024-01-30T03:37:11;100785.72;;;4.53;60.62
83191;BME280;73087;49.924;22.080;2024-01-30T03:38:13;100793.53;;;4.51;60.72
83191;BME280;73087;49.924;22.080;2024-01-30T03:39:13;100794.41;;;4.52;60.37
83191;BME280;73087;49.924;22.080;2024-01-30T03:40:14;100784.75;;;4.55;59.78
83191;BME280;73087;49.924;22.080;2024-01-30T03:41:15;100781.25;;;4.56;58.86
83191;BME280;73087;49.924;22.080;2024-01-30T03:42:15;100787.41;;;4.53;60.38
83191;BME280;73087;49.924;22.080;2024-01-30T03:43:16;100784.84;;;4.52;59.08
83191;BME280;73087;49.924;22.080;2024-01-30T03:44:16;100784.94;;;4.49;59.10
83191;BME280;73087;49.924;22.080;2024-01-30T03:45:17;100780.72;;;4.45;60.75
83191;BME280;73087;49.924;22.080;2024-01-30T03:46:17;100791.16;;;4.44;59.19
83191;BME280;73087;49.924;22.080;2024-01-30T03:47:18;100781.72;;;4.41;60.21
83191;BME280;73087;49.924;22.080;2024-01-30T03:48:19;100788.63;;;4.42;60.96
83191;BME280;73087;49.924;22.080;2024-01-30T03:49:20;100788.63;;;4.42;60.69
83191;BME280;73087;49.924;22.080;2024-01-30T03:50:21;100785.22;;;4.40;59.83
83191;BME280;73087;49.924;22.080;2024-01-30T03:51:21;100785.31;;;4.37;59.47
83191;BME280;73087;49.924;22.080;2024-01-30T03:52:22;100781.91;;;4.35;59.80
83191;BME280;73087;49.924;22.080;2024-01-30T03:53:24;100788.91;;;4.33;60.60
83191;BME280;73087;49.924;22.080;2024-01-30T03:54:24;100785.41;;;4.34;60.03
83191;BME280;73087;49.924;22.080;2024-01-30T03:55:25;100790.59;;;4.34;59.88
83191;BME280;73087;49.924;22.080;2024-01-30T03:56:25;100785.50;;;4.31;60.88
83191;BME280;73087;49.924;22.080;2024-01-30T03:57:26;100785.50;;;4.31;60.17
83191;BME280;73087;49.924;22.080;2024-01-30T03:58:26;100790.59;;;4.34;60.48
83191;BME280;73087;49.924;22.080;2024-01-30T03:59:27;100794.84;;;4.37;59.70
83191;BME280;73087;49.924;22.080;2024-01-30T04:00:27;100787.00;;;4.38;60.35
83191;BME280;73087;49.924;22.080;2024-01-30T04:01:28;100768.25;;;4.27;60.93
83191;BME280;73087;49.924;22.080;2024-01-30T04:02:29;100794.09;;;4.33;61.48
83191;BME280;73087;49.924;22.080;2024-01-30T04:03:29;100783.59;;;4.36;61.11
83191;BME280;73087;49.924;22.080;2024-01-30T04:04:30;100794.00;;;4.36;59.99
83191;BME280;73087;49.924;22.080;2024-01-30T04:05:30;100790.41;;;4.40;59.62
83191;BME280;73087;49.924;22.080;2024-01-30T04:06:31;100785.22;;;4.40;59.81
83191;BME280;73087;49.924;22.080;2024-01-30T04:07:31;100786.00;;;4.42;60.42
83191;BME280;73087;49.924;22.080;2024-01-30T04:08:33;100789.44;;;4.43;59.53
83191;BME280;73087;49.924;22.080;2024-01-30T04:09:34;100792.13;;;4.41;59.93
83191;BME280;73087;49.924;22.080;2024-01-30T04:10:34;100786.91;;;4.41;60.73
83191;BME280;73087;49.924;22.080;2024-01-30T04:11:35;100793.72;;;4.45;61.00
83191;BME280;73087;49.924;22.080;2024-01-30T04:12:36;100792.03;;;4.44;60.68
83191;BME280;73087;49.924;22.080;2024-01-30T04:13:36;100787.53;;;4.49;59.36
83191;BME280;73087;49.924;22.080;2024-01-30T04:14:38;100790.22;;;4.46;59.12
83191;BME280;73087;49.924;22.080;2024-01-30T04:15:38;100786.72;;;4.47;60.84
83191;BME280;73087;49.924;22.080;2024-01-30T04:16:39;100788.44;;;4.48;59.13
83191;BME280;73087;49.924;22.080;2024-01-30T04:17:39;100781.53;;;4.47;59.84
83191;BME280;73087;49.924;22.080;2024-01-30T04:18:40;100793.72;;;4.45;60.97
83191;BME280;73087;49.924;22.080;2024-01-30T04:19:41;100788.53;;;4.45;59.56
83191;BME280;73087;49.924;22.080;2024-01-30T04:20:41;100779.91;;;4.43;60.26
83191;BME280;73087;49.924;22.080;2024-01-30T04:21:42;100781.63;;;4.44;59.21
83191;BME280;73087;49.924;22.080;2024-01-30T04:22:43;100787.59;;;4.48;60.74
83191;BME280;73087;49.924;22.080;2024-01-30T04:23:45;100779.81;;;4.46;59.75
83191;BME280;73087;49.924;22.080;2024-01-30T04:24:45;100786.72;;;4.47;59.78
83191;BME280;73087;49.924;22.080;2024-01-30T04:25:46;100791.94;;;4.47;59.33
83191;BME280;73087;49.924;22.080;2024-01-30T04:26:46;100785.13;;;4.43;59.64
83191;BME280;73087;49.924;22.080;2024-01-30T04:27:47;100790.31;;;4.43;59.77
83191;BME280;73087;49.924;22.080;2024-01-30T04:28:47;100783.31;;;4.45;59.86
83191;BME280;73087;49.924;22.080;2024-01-30T04:29:48;100786.81;;;4.44;59.88
83191;BME280;73087;49.924;22.080;2024-01-30T04:30:48;100794.63;;;4.44;59.85
83191;BME280;73087;49.924;22.080;2024-01-30T04:31:49;100794.63;;;4.44;60.37
83191;BME280;73087;49.924;22.080;2024-01-30T04:32:49;100795.53;;;4.43;59.43
83191;BME280;73087;49.924;22.080;2024-01-30T04:33:51;100798.22;;;4.40;60.43
83191;BME280;73087;49.924;22.080;2024-01-30T04:34:52;100798.22;;;4.40;60.42
83191;BME280;73087;49.924;22.080;2024-01-30T04:35:52;100802.59;;;4.38;60.21
83191;BME280;73087;49.924;22.080;2024-01-30T04:36:53;100790.50;;;4.37;60.37
83191;BME280;73087;49.924;22.080;2024-01-30T04:37:53;100797.31;;;4.41;59.92
83191;BME280;73087;49.924;22.080;2024-01-30T04:38:55;100727.38;;;4.03;60.29
83191;BME280;73087;49.924;22.080;2024-01-30T04:39:56;100805.13;;;4.41;59.44
83191;BME280;73087;49.924;22.080;2024-01-30T04:40:57;100802.59;;;4.38;59.76
83191;BME280;73087;49.924;22.080;2024-01-30T04:41:57;100797.31;;;4.41;60.28
83191;BME280;73087;49.924;22.080;2024-01-30T04:42:58;100782.03;;;4.29;60.13
83191;BME280;73087;49.924;22.080;2024-01-30T04:43:58;100797.41;;;4.38;60.48
83191;BME280;73087;49.924;22.080;2024-01-30T04:44:59;100783.84;;;4.27;59.28
83191;BME280;73087;49.924;22.080;2024-01-30T04:45:59;100796.44;;;4.41;59.17
83191;BME280;73087;49.924;22.080;2024-01-30T04:47:00;100802.53;;;4.41;60.29
83191;BME280;73087;49.924;22.080;2024-01-30T04:48:00;100800.81;;;4.40;59.93
83191;BME280;73087;49.924;22.080;2024-01-30T04:49:01;100802.59;;;4.38;59.12
83191;BME280;73087;49.924;22.080;2024-01-30T04:50:01;100780.44;;;4.25;60.71
83191;BME280;73087;49.924;22.080;2024-01-30T04:51:02;100799.19;;;4.36;59.05
83191;BME280;73087;49.924;22.080;2024-01-30T04:52:03;100801.00;;;4.34;59.40
83191;BME280;73087;49.924;22.080;2024-01-30T04:53:04;100808.84;;;4.33;59.83
83191;BME280;73087;49.924;22.080;2024-01-30T04:54:11;100803.63;;;4.33;60.22
83191;BME280;73087;49.924;22.080;2024-01-30T04:55:11;100806.19;;;4.34;60.68
83191;BME280;73087;49.924;22.080;2024-01-30T04:56:12;100803.63;;;4.33;59.69
83191;BME280;73087;49.924;22.080;2024-01-30T04:57:12;100796.72;;;4.32;59.27
83191;BME280;73087;49.924;22.080;2024-01-30T04:58:13;100799.34;;;4.30;59.76
83191;BME280;73087;49.924;22.080;2024-01-30T04:59:13;100803.72;;;4.30;60.64
83191;BME280;73087;49.924;22.080;2024-01-30T05:00:14;100795.94;;;4.28;60.22
83191;BME280;73087;49.924;22.080;2024-01-30T05:01:15;100797.66;;;4.29;60.43
83191;BME280;73087;49.924;22.080;2024-01-30T05:02:16;100796.03;;;4.25;59.17
83191;BME280;73087;49.924;22.080;2024-01-30T05:03:16;100798.59;;;4.27;60.32
83191;BME280;73087;49.924;22.080;2024-01-30T05:04:18;100794.34;;;4.24;59.96
83191;BME280;73087;49.924;22.080;2024-01-30T05:05:19;100803.00;;;4.25;59.70
83191;BME280;73087;49.924;22.080;2024-01-30T05:06:25;100801.22;;;4.25;60.67
83191;BME280;73087;49.924;22.080;2024-01-30T05:07:26;100803.03;;;4.23;59.82
83191;BME280;73087;49.924;22.080;2024-01-30T05:08:26;100801.31;;;4.22;59.14
83191;BME280;73087;49.924;22.080;2024-01-30T05:09:29;100804.81;;;4.21;60.56
83191;BME280;73087;49.924;22.080;2024-01-30T05:10:30;100806.63;;;4.19;59.72
83191;BME280;73087;49.924;22.080;2024-01-30T05:11:30;100811.81;;;4.19;60.80
83191;BME280;73087;49.924;22.080;2024-01-30T05:12:31;100813.59;;;4.17;60.52
83191;BME280;73087;49.924;22.080;2024-01-30T05:13:31;100811.91;;;4.16;59.32
83191;BME280;73087;49.924;22.080;2024-01-30T05:14:32;100806.78;;;4.13;60.73
83191;BME280;73087;49.924;22.080;2024-01-30T05:15:34;100808.59;;;4.11;60.06
83191;BME280;73087;49.924;22.080;2024-01-30T05:16:34;100808.59;;;4.11;59.31
83191;BME280;73087;49.924;22.080;2024-01-30T05:17:38;100806.00;;;4.10;61.05
83191;BME280;73087;49.924;22.080;2024-01-30T05:18:38;100783.00;;;3.96;59.72